Time;durP1;ratioP1;P1;durP2;ratioP2;P2;SDS_P1;SDS_P2;PMS_P1;PMS_P2;Temp;Humidity;BMP_temperature;BMP_pressure;BME280_temperature;BME280_humidity;BME280_pressure;Samples;Min_cycle;Max_cycle;Signal;HPM_P1;HPM_P2
2022/01/14 00:00:58;;;;;;;36.10;17.13;;;;;;;-2.41;nan;-23746.84;5031987;28;20189;-75
2022/01/14 00:03:24;;;;;;;34.47;16.87;;;;;;;-2.73;nan;-23737.78;5032817;28;20186;-75
2022/01/14 00:05:49;;;;;;;36.43;17.00;;;;;;;-2.89;nan;-23733.19;5014440;28;20185;-75
2022/01/14 00:08:15;;;;;;;33.60;16.07;;;;;;;-2.59;nan;-23741.53;5014897;28;20210;-75
2022/01/14 00:10:47;;;;;;;32.27;15.47;;;;;;;-2.42;nan;-23746.41;5032048;28;20186;-75
2022/01/14 00:13:37;;;;;;;33.70;15.67;;;;;;;-2.12;nan;-23755.03;5032053;28;21740;-75
2022/01/14 00:15:58;;;;;;;29.30;14.73;;;;;;;-2.35;nan;-23748.41;5033253;28;20242;-74
2022/01/14 00:18:24;;;;;;;34.47;16.57;;;;;;;-2.36;nan;-23748.13;5032104;28;20918;-76
2022/01/14 00:20:49;;;;;;;30.63;15.07;;;;;;;-1.95;nan;-23759.75;5031166;28;20235;-75
2022/01/14 00:23:16;;;;;;;30.27;15.07;;;;;;;-2.00;nan;-23758.47;5014448;28;20187;-75
2022/01/14 00:33:54;;;;;;;29.13;14.87;;;;;;;-2.32;nan;-23749.28;5032357;28;20218;-75
2022/01/14 00:36:19;;;;;;;27.27;13.53;;;;;;;-2.32;nan;-23749.41;5032271;28;20176;-75
2022/01/14 00:38:45;;;;;;;30.87;15.00;;;;;;;-2.10;nan;-23755.59;5016782;28;20204;-75
2022/01/14 00:41:10;;;;;;;32.27;14.93;;;;;;;-2.02;nan;-23757.75;5030193;28;20188;-74
2022/01/14 00:43:37;;;;;;;29.27;14.27;;;;;;;-2.29;nan;-23750.13;5036117;28;20215;-75
2022/01/14 00:46:03;;;;;;;30.17;14.80;;;;;;;-2.63;nan;-23740.38;5034936;28;20198;-75
2022/01/14 00:48:28;;;;;;;28.73;15.03;;;;;;;-2.04;nan;-23757.19;5032867;28;20183;-75
2022/01/14 00:50:54;;;;;;;28.03;14.57;;;;;;;-2.07;nan;-23756.31;5029777;28;20255;-75
2022/01/14 00:53:19;;;;;;;27.30;12.80;;;;;;;-2.21;nan;-23752.44;5032694;28;20233;-75
2022/01/14 00:55:58;;;;;;;28.37;14.27;;;;;;;-2.40;nan;-23746.97;5030777;28;20215;-75
2022/01/14 01:01:08;;;;;;;32.23;14.50;;;;;;;-2.59;nan;-23741.53;5032173;28;20258;-75
2022/01/14 01:03:34;;;;;;;30.60;15.70;;;;;;;-2.17;nan;-23753.44;5030653;28;20685;-76
2022/01/14 01:06:00;;;;;;;32.40;14.73;;;;;;;-2.22;nan;-23752.00;5032558;28;20185;-76
2022/01/14 01:08:28;;;;;;;35.10;15.40;;;;;;;-2.06;nan;-23756.75;5033899;28;20298;-76
2022/01/14 01:10:53;;;;;;;35.60;17.50;;;;;;;-1.92;nan;-23760.75;5032260;28;20317;-76
2022/01/14 01:13:26;;;;;;;32.70;15.73;;;;;;;-2.53;nan;-23743.38;5013939;28;20866;-75
2022/01/14 01:15:54;;;;;;;29.43;14.23;;;;;;;-2.38;nan;-23747.56;5033056;28;20235;-75
2022/01/14 01:18:21;;;;;;;30.33;15.00;;;;;;;-2.31;nan;-23749.56;5043583;28;20190;-76
2022/01/14 01:20:46;;;;;;;30.80;15.70;;;;;;;-2.67;nan;-23739.50;5051470;28;20628;-76
2022/01/14 01:23:12;;;;;;;32.27;16.43;;;;;;;-2.34;nan;-23748.84;5033104;28;20185;-76
2022/01/14 01:25:43;;;;;;;31.27;15.63;;;;;;;-2.28;nan;-23750.56;5051130;28;20183;-77
2022/01/14 01:28:08;;;;;;;32.03;15.60;;;;;;;-2.45;nan;-23745.53;5050981;28;20195;-76
2022/01/14 01:33:02;;;;;;;31.40;14.47;;;;;;;-2.11;nan;-23755.31;5053270;28;20284;-76
2022/01/14 01:35:29;;;;;;;28.13;14.37;;;;;;;-1.99;nan;-23758.75;5053059;28;20269;-76
2022/01/14 01:37:54;;;;;;;30.63;14.50;;;;;;;-1.87;nan;-23762.19;5048059;28;20656;-76
2022/01/14 01:40:22;;;;;;;31.80;15.17;;;;;;;-2.12;nan;-23754.88;5036234;28;20185;-76
2022/01/14 01:42:48;;;;;;;25.90;13.97;;;;;;;-1.94;nan;-23760.06;5036138;28;20200;-76
2022/01/14 01:45:21;;;;;;;32.47;15.57;;;;;;;-2.34;nan;-23748.69;5034630;28;20172;-76
2022/01/14 01:47:50;;;;;;;30.90;14.60;;;;;;;-1.77;nan;-23764.78;5035360;28;20178;-76
2022/01/14 01:50:19;;;;;;;31.03;13.70;;;;;;;-1.56;nan;-23770.81;5037205;28;20563;-76
2022/01/14 01:52:45;;;;;;;32.03;15.63;;;;;;;-1.46;nan;-23773.69;5034858;28;20268;-76
2022/01/14 01:55:11;;;;;;;29.47;13.93;;;;;;;-1.40;nan;-23775.53;5034800;28;20241;-76
2022/01/14 01:57:37;;;;;;;31.27;15.53;;;;;;;-1.29;nan;-23778.41;5034427;28;20654;-76
2022/01/14 02:00:07;;;;;;;36.63;15.60;;;;;;;-1.83;nan;-23763.19;5035789;28;20194;-76
2022/01/14 02:02:35;;;;;;;34.17;16.43;;;;;;;-1.31;nan;-23778.00;5035660;28;20194;-76
2022/01/14 02:05:02;;;;;;;32.50;15.60;;;;;;;-1.80;nan;-23764.22;5033137;28;20192;-76
2022/01/14 02:07:28;;;;;;;30.87;15.13;;;;;;;-2.17;nan;-23753.44;5034450;28;20324;-76
2022/01/14 02:09:53;;;;;;;35.60;15.93;;;;;;;-1.23;nan;-23780.28;5034807;28;20564;-75
2022/01/14 02:12:19;;;;;;;34.47;15.47;;;;;;;-1.17;nan;-23782.00;5034209;28;20203;-75
2022/01/14 02:15:07;;;;;;;29.37;15.63;;;;;;;-1.72;nan;-23766.38;5034934;28;20214;-75
2022/01/14 02:17:47;;;;;;;33.87;15.67;;;;;;;-1.29;nan;-23778.56;5025488;28;20195;-75
2022/01/14 02:23:01;;;;;;;33.90;16.57;;;;;;;-1.76;nan;-23765.06;5037616;28;20392;-75
2022/01/14 02:25:30;;;;;;;32.67;15.93;;;;;;;-1.87;nan;-23762.06;5053508;28;20183;-75
2022/01/14 02:28:17;;;;;;;31.80;15.53;;;;;;;-1.34;nan;-23777.13;5054122;28;20186;-75
2022/01/14 02:30:45;;;;;;;32.23;15.30;;;;;;;-1.85;nan;-23762.63;5053733;28;20174;-75
2022/01/14 02:33:12;;;;;;;34.53;16.33;;;;;;;-1.47;nan;-23773.41;5053689;28;20239;-75
2022/01/14 02:35:41;;;;;;;31.80;15.37;;;;;;;-1.59;nan;-23769.94;5048255;28;20636;-75
2022/01/14 02:38:09;;;;;;;32.40;15.40;;;;;;;-1.90;nan;-23761.34;5044277;28;20182;-75
2022/01/14 02:40:36;;;;;;;37.43;16.60;;;;;;;-1.53;nan;-23771.81;5039559;28;20664;-76
2022/01/14 02:43:05;;;;;;;33.27;16.23;;;;;;;-1.69;nan;-23767.06;5037124;28;20188;-76
2022/01/14 02:45:33;;;;;;;34.97;16.40;;;;;;;-1.63;nan;-23768.81;5017462;28;20276;-76
2022/01/14 02:48:00;;;;;;;31.97;16.03;;;;;;;-1.68;nan;-23767.50;5036898;28;20182;-76
2022/01/14 02:50:28;;;;;;;35.87;16.10;;;;;;;-1.84;nan;-23763.06;5034239;28;20178;-76
2022/01/14 02:55:21;;;;;;;35.80;16.83;;;;;;;-1.90;nan;-23761.34;5034771;28;20221;-76
2022/01/14 02:57:52;;;;;;;38.00;16.67;;;;;;;-2.35;nan;-23748.56;5033677;28;20181;-76
2022/01/14 03:00:21;;;;;;;35.13;16.87;;;;;;;-2.14;nan;-23754.31;5036035;28;20202;-76
2022/01/14 03:02:49;;;;;;;34.23;15.53;;;;;;;-1.91;nan;-23760.91;5052811;28;20208;-76
2022/01/14 03:05:20;;;;;;;35.37;16.47;;;;;;;-2.26;nan;-23751.00;5034858;28;20189;-76
2022/01/14 03:07:47;;;;;;;34.70;16.03;;;;;;;-2.36;nan;-23748.13;5049819;28;20650;-76
2022/01/14 03:10:15;;;;;;;28.53;14.70;;;;;;;-1.93;nan;-23760.34;5048485;28;20266;-76
2022/01/14 03:12:43;;;;;;;31.90;14.97;;;;;;;-2.38;nan;-23747.56;5034799;28;20243;-76
2022/01/14 03:15:11;;;;;;;27.70;14.37;;;;;;;-2.38;nan;-23747.69;5035447;28;20612;-76
2022/01/14 03:17:36;;;;;;;24.03;12.80;;;;;;;-2.06;nan;-23756.75;5044687;28;20190;-76
2022/01/14 03:20:05;;;;;;;27.07;13.03;;;;;;;-1.92;nan;-23760.75;5034915;28;20591;-76
2022/01/14 03:22:35;;;;;;;24.70;12.37;;;;;;;-2.15;nan;-23754.16;5052582;28;20189;-76
2022/01/14 03:27:46;;;;;;;20.60;11.00;;;;;;;-1.83;nan;-23763.34;5040451;28;20193;-75
2022/01/14 03:30:12;;;;;;;20.90;10.90;;;;;;;-1.30;nan;-23778.28;5021114;28;20186;-75
2022/01/14 03:32:39;;;;;;;24.07;11.93;;;;;;;-1.15;nan;-23782.44;5024578;28;20187;-74
2022/01/14 03:35:06;;;;;;;22.53;11.43;;;;;;;-1.58;nan;-23770.25;5038685;28;20295;-74
2022/01/14 03:37:31;;;;;;;23.83;11.67;;;;;;;-1.74;nan;-23765.66;5033495;28;20673;-74
2022/01/14 03:39:57;;;;;;;21.87;11.33;;;;;;;-1.36;nan;-23776.69;5033828;28;20276;-75
2022/01/14 03:42:22;;;;;;;21.30;11.70;;;;;;;-1.26;nan;-23779.28;5033492;28;20189;-75
2022/01/14 03:44:48;;;;;;;22.43;11.07;;;;;;;-1.14;nan;-23782.88;5033670;28;20221;-75
2022/01/14 03:47:13;;;;;;;19.87;11.43;;;;;;;-1.64;nan;-23768.50;5033391;28;20548;-75
2022/01/14 03:49:38;;;;;;;21.50;11.83;;;;;;;-1.71;nan;-23766.66;5030065;28;20612;-75
2022/01/14 03:52:04;;;;;;;25.97;12.73;;;;;;;-1.44;nan;-23774.25;5015102;28;20229;-75
2022/01/14 03:54:30;;;;;;;26.33;12.73;;;;;;;-1.66;nan;-23767.94;5020850;28;20219;-75
2022/01/14 03:56:55;;;;;;;24.87;12.70;;;;;;;-1.36;nan;-23776.56;5031630;28;20182;-75
2022/01/14 03:59:21;;;;;;;26.67;12.63;;;;;;;-1.57;nan;-23770.66;5032257;28;20196;-76
2022/01/14 04:01:46;;;;;;;25.50;13.10;;;;;;;-1.84;nan;-23763.06;5031485;28;20185;-76
2022/01/14 04:04:12;;;;;;;26.10;12.87;;;;;;;-1.57;nan;-23770.53;5034314;28;20683;-76
2022/01/14 04:06:37;;;;;;;26.17;13.10;;;;;;;-1.27;nan;-23779.13;5043408;28;20193;-76
2022/01/14 04:09:04;;;;;;;25.53;12.67;;;;;;;-1.42;nan;-23774.81;5035957;28;20569;-76
2022/01/14 04:11:30;;;;;;;24.53;13.87;;;;;;;-1.26;nan;-23779.41;5036583;28;20239;-76
2022/01/14 04:14:06;;;;;;;26.73;14.20;;;;;;;-1.41;nan;-23775.13;5015199;28;20212;-75
2022/01/14 04:16:31;;;;;;;31.93;14.17;;;;;;;-1.48;nan;-23773.09;5014660;28;20255;-76
2022/01/14 04:18:57;;;;;;;30.03;14.33;;;;;;;-1.63;nan;-23768.94;5031929;28;20185;-77
2022/01/14 04:21:22;;;;;;;27.17;13.97;;;;;;;-1.56;nan;-23770.94;5031493;28;20520;-74
2022/01/14 04:23:48;;;;;;;28.90;13.77;;;;;;;-1.22;nan;-23780.56;5015176;28;20243;-75
2022/01/14 04:26:14;;;;;;;30.07;14.17;;;;;;;-1.44;nan;-23774.41;5040124;28;20189;-75
2022/01/14 04:28:39;;;;;;;28.20;13.90;;;;;;;-1.91;nan;-23761.06;5033111;28;20177;-75
2022/01/14 04:31:07;;;;;;;28.53;14.00;;;;;;;-1.89;nan;-23761.47;5033587;28;20625;-75
2022/01/14 04:33:34;;;;;;;28.63;14.77;;;;;;;-1.37;nan;-23776.25;5034807;28;20632;-75
2022/01/14 04:36:01;;;;;;;31.23;14.60;;;;;;;-1.34;nan;-23777.13;5038472;28;20197;-75
2022/01/14 04:38:28;;;;;;;28.90;14.63;;;;;;;-1.92;nan;-23760.63;5035314;28;20221;-75
2022/01/14 04:40:54;;;;;;;29.90;15.03;;;;;;;-1.90;nan;-23761.34;5039014;28;20177;-75
2022/01/14 04:43:21;;;;;;;30.10;14.80;;;;;;;-2.05;nan;-23757.03;5019972;28;20615;-75
2022/01/14 04:48:27;;;;;;;30.40;13.33;;;;;;;-2.06;nan;-23756.75;5035472;28;20287;-75
2022/01/14 04:50:54;;;;;;;28.37;13.73;;;;;;;-1.53;nan;-23771.69;5041380;28;20192;-76
2022/01/14 04:53:20;;;;;;;27.13;13.23;;;;;;;-1.72;nan;-23766.38;5038683;28;20225;-76
2022/01/14 04:55:46;;;;;;;29.13;14.00;;;;;;;-1.56;nan;-23770.94;5048003;28;20283;-76
2022/01/14 04:58:12;;;;;;;28.87;13.80;;;;;;;-1.53;nan;-23771.69;5030987;28;20191;-75
2022/01/14 05:00:39;;;;;;;27.90;13.50;;;;;;;-1.65;nan;-23768.38;5032390;28;20194;-75
2022/01/14 05:03:05;;;;;;;30.03;14.43;;;;;;;-1.69;nan;-23767.06;5036074;28;20216;-74
2022/01/14 05:05:34;;;;;;;26.47;13.70;;;;;;;-1.67;nan;-23767.66;5034548;28;20183;-75
2022/01/14 05:07:59;;;;;;;27.77;13.70;;;;;;;-1.86;nan;-23762.50;5034788;28;20177;-75
2022/01/14 05:12:51;;;;;;;26.23;13.63;;;;;;;-2.12;nan;-23755.03;5035789;28;20196;-75
2022/01/14 05:15:18;;;;;;;27.80;13.83;;;;;;;-1.88;nan;-23761.78;5037778;28;20841;-76
2022/01/14 05:17:44;;;;;;;25.03;12.73;;;;;;;-2.02;nan;-23757.91;5024144;28;20618;-74
2022/01/14 05:20:11;;;;;;;28.10;13.93;;;;;;;-1.60;nan;-23769.66;5035446;28;20185;-76
2022/01/14 05:22:37;;;;;;;27.37;13.93;;;;;;;-1.59;nan;-23770.09;5033347;28;20712;-75
2022/01/14 05:25:04;;;;;;;30.23;13.63;;;;;;;-1.92;nan;-23760.63;5036892;28;20255;-74
2022/01/14 05:27:29;;;;;;;28.57;14.03;;;;;;;-2.03;nan;-23757.59;5038436;28;20205;-75
2022/01/14 05:29:55;;;;;;;25.50;12.97;;;;;;;-1.91;nan;-23761.06;5038546;28;20190;-75
2022/01/14 05:32:21;;;;;;;29.73;13.43;;;;;;;-1.38;nan;-23776.13;5018033;28;20184;-76
2022/01/14 05:34:48;;;;;;;26.30;12.30;;;;;;;-1.43;nan;-23774.53;5035411;28;20201;-76
2022/01/14 05:37:14;;;;;;;25.97;13.37;;;;;;;-1.61;nan;-23769.38;5038004;28;20259;-75
2022/01/14 05:39:39;;;;;;;26.47;13.03;;;;;;;-1.55;nan;-23771.09;5039413;28;20356;-74
2022/01/14 05:42:06;;;;;;;27.30;13.87;;;;;;;-1.82;nan;-23763.50;5041236;28;20199;-76
2022/01/14 05:44:32;;;;;;;23.07;12.37;;;;;;;-1.85;nan;-23762.78;5037314;28;20230;-75
2022/01/14 05:46:59;;;;;;;27.07;13.37;;;;;;;-1.89;nan;-23761.63;5044895;28;20189;-76
2022/01/14 05:49:25;;;;;;;22.00;11.80;;;;;;;-1.57;nan;-23770.53;5054361;28;20656;-75
2022/01/14 05:51:51;;;;;;;28.23;12.20;;;;;;;-1.35;nan;-23776.97;5023588;28;20224;-75
2022/01/14 05:54:18;;;;;;;24.80;12.17;;;;;;;-1.08;nan;-23784.59;5032442;28;20203;-75
2022/01/14 05:56:43;;;;;;;25.27;12.23;;;;;;;-1.25;nan;-23779.72;5033937;28;20243;-75
2022/01/14 05:59:10;;;;;;;24.17;12.47;;;;;;;-0.88;nan;-23790.03;5033832;28;20185;-74
2022/01/14 06:01:36;;;;;;;24.37;11.67;;;;;;;-0.97;nan;-23787.72;5032773;28;20192;-76
2022/01/14 06:04:03;;;;;;;24.23;12.00;;;;;;;-0.94;nan;-23788.59;5044471;28;20265;-73
2022/01/14 06:06:29;;;;;;;20.93;10.87;;;;;;;-1.39;nan;-23775.69;5029080;28;20324;-76
2022/01/14 06:08:55;;;;;;;19.17;10.70;;;;;;;-1.16;nan;-23782.16;5023782;28;20184;-75
2022/01/14 06:11:21;;;;;;;22.33;10.87;;;;;;;-0.84;nan;-23791.19;5019938;28;20184;-75
2022/01/14 06:13:47;;;;;;;20.00;9.83;;;;;;;-0.53;nan;-23800.06;5017951;28;20274;-74
2022/01/14 06:16:13;;;;;;;19.80;9.97;;;;;;;-0.48;nan;-23801.50;5014215;28;20648;-75
2022/01/14 06:18:38;;;;;;;20.03;9.93;;;;;;;-1.32;nan;-23777.69;5020905;28;20186;-72
2022/01/14 06:21:04;;;;;;;22.57;11.07;;;;;;;-0.78;nan;-23792.91;5020863;28;20194;-72
2022/01/14 06:23:30;;;;;;;23.00;10.17;;;;;;;-0.71;nan;-23794.91;5019758;28;20191;-75
2022/01/14 06:25:55;;;;;;;19.10;9.70;;;;;;;-0.43;nan;-23802.78;5021425;28;20196;-74
2022/01/14 06:28:21;;;;;;;17.20;9.73;;;;;;;-0.68;nan;-23795.91;5021025;28;20559;-77
2022/01/14 06:30:47;;;;;;;17.03;9.03;;;;;;;-0.24;nan;-23808.22;5018391;28;20241;-75
2022/01/14 06:33:12;;;;;;;16.40;9.07;;;;;;;-0.30;nan;-23806.66;5033407;28;20184;-77
2022/01/14 06:35:38;;;;;;;13.27;7.63;;;;;;;-0.54;nan;-23799.78;5021053;28;20277;-74
2022/01/14 06:38:04;;;;;;;14.87;8.30;;;;;;;-0.08;nan;-23812.97;5031647;28;20237;-74
2022/01/14 06:40:31;;;;;;;17.07;9.20;;;;;;;-0.38;nan;-23804.38;5020235;28;20191;-74
2022/01/14 06:42:56;;;;;;;15.37;8.53;;;;;;;-0.05;nan;-23813.69;5024005;28;20179;-75
2022/01/14 06:45:22;;;;;;;18.30;9.40;;;;;;;0.14;nan;-23818.97;5024614;28;20184;-74
2022/01/14 06:47:48;;;;;;;17.30;9.50;;;;;;;0.21;nan;-23821.13;5024977;28;20203;-74
2022/01/14 06:50:14;;;;;;;18.57;9.73;;;;;;;0.33;nan;-23824.41;5029435;28;20199;-75
2022/01/14 06:52:40;;;;;;;19.93;10.60;;;;;;;0.13;nan;-23818.84;5047666;28;20718;-74
2022/01/14 06:55:07;;;;;;;19.10;8.70;;;;;;;0.29;nan;-23823.28;5031399;28;20257;-76
2022/01/14 06:57:33;;;;;;;20.37;9.93;;;;;;;0.51;nan;-23829.44;5030860;28;20192;-74
2022/01/14 06:59:58;;;;;;;19.90;10.27;;;;;;;0.59;nan;-23831.84;5031794;28;20253;-75
2022/01/14 07:02:24;;;;;;;17.97;9.17;;;;;;;0.22;nan;-23821.25;5031198;28;20183;-75
2022/01/14 07:04:49;;;;;;;16.10;9.20;;;;;;;0.72;nan;-23835.44;5031155;28;20188;-75
2022/01/14 07:07:14;;;;;;;16.20;8.63;;;;;;;0.94;nan;-23841.72;5032582;28;20208;-75
2022/01/14 07:09:58;;;;;;;17.23;8.87;;;;;;;0.68;nan;-23834.44;5032275;28;20174;-75
2022/01/14 07:12:28;;;;;;;21.57;8.97;;;;;;;1.20;nan;-23849.03;5031232;28;20174;-76
2022/01/14 07:14:54;;;;;;;18.03;9.10;;;;;;;1.09;nan;-23846.03;5032590;28;20233;-76
2022/01/14 07:17:20;;;;;;;18.07;9.37;;;;;;;1.18;nan;-23848.44;5022059;28;20217;-76
2022/01/14 07:19:48;;;;;;;17.87;9.70;;;;;;;1.31;nan;-23852.16;5028014;28;20726;-73
2022/01/14 07:22:14;;;;;;;17.93;9.90;;;;;;;0.94;nan;-23841.72;5032644;28;20185;-76
2022/01/14 07:24:39;;;;;;;18.23;9.63;;;;;;;0.99;nan;-23843.00;5032914;28;20175;-74
2022/01/14 07:27:05;;;;;;;18.30;8.73;;;;;;;1.49;nan;-23857.16;5031739;28;20189;-76
2022/01/14 07:29:30;;;;;;;18.23;9.43;;;;;;;1.20;nan;-23849.03;5027295;28;20219;-74
2022/01/14 07:31:56;;;;;;;17.93;9.13;;;;;;;1.32;nan;-23852.44;5022981;28;20609;-76
2022/01/14 07:34:21;;;;;;;20.27;9.17;;;;;;;1.42;nan;-23855.31;5026941;28;20199;-75
2022/01/14 07:36:46;;;;;;;22.00;10.33;;;;;;;1.04;nan;-23844.44;5031775;28;20241;-75
2022/01/14 07:39:12;;;;;;;18.03;10.00;;;;;;;1.59;nan;-23860.03;5032137;28;20191;-74
2022/01/14 07:41:37;;;;;;;21.23;10.97;;;;;;;1.38;nan;-23854.16;5032306;28;20658;-75
2022/01/14 07:44:04;;;;;;;19.00;10.60;;;;;;;1.52;nan;-23858.16;5031950;28;20164;-75
2022/01/14 07:46:29;;;;;;;24.97;11.37;;;;;;;1.85;nan;-23867.31;5032127;28;20578;-75
2022/01/14 07:48:55;;;;;;;19.00;10.40;;;;;;;1.93;nan;-23869.75;5032211;28;20197;-75
2022/01/14 07:51:21;;;;;;;20.43;10.70;;;;;;;2.23;nan;-23878.16;5031867;28;20277;-74
2022/01/14 07:53:46;;;;;;;17.90;9.43;;;;;;;2.00;nan;-23871.59;5051092;28;20170;-75
2022/01/14 07:56:13;;;;;;;17.50;9.50;;;;;;;2.20;nan;-23877.31;5032636;28;20166;-75
2022/01/14 07:58:40;;;;;;;16.97;9.57;;;;;;;1.96;nan;-23870.47;5032778;28;20179;-77
2022/01/14 08:01:06;;;;;;;15.27;8.87;;;;;;;2.41;nan;-23883.16;5051766;28;20178;-76
2022/01/14 08:03:31;;;;;;;18.50;8.60;;;;;;;2.53;nan;-23886.59;5051076;28;20728;-76
2022/01/14 08:05:58;;;;;;;15.77;8.27;;;;;;;2.53;nan;-23886.59;5033429;28;20183;-76
2022/01/14 08:08:24;;;;;;;20.13;9.10;;;;;;;2.42;nan;-23883.59;5044291;28;20179;-77
2022/01/14 08:10:50;;;;;;;23.80;8.63;;;;;;;2.25;nan;-23878.75;5032877;28;20194;-77
2022/01/14 08:13:16;;;;;;;13.20;7.77;;;;;;;2.34;nan;-23881.31;5041631;28;20288;-77
2022/01/14 08:15:41;;;;;;;14.30;8.50;;;;;;;2.56;nan;-23887.59;5037172;28;20302;-77
2022/01/14 08:18:07;;;;;;;14.13;7.97;;;;;;;2.51;nan;-23886.16;5037671;28;20190;-77
2022/01/14 08:20:33;;;;;;;14.27;8.07;;;;;;;3.02;nan;-23900.44;5037229;28;20186;-74
2022/01/14 08:22:59;;;;;;;17.50;8.57;;;;;;;2.78;nan;-23893.59;5040225;28;20199;-75
2022/01/14 08:25:25;;;;;;;15.20;8.73;;;;;;;3.44;nan;-23912.41;5049958;28;20186;-77
2022/01/14 08:27:51;;;;;;;18.23;8.77;;;;;;;2.98;nan;-23899.44;5044700;28;20182;-77
2022/01/14 08:30:16;;;;;;;14.73;8.80;;;;;;;3.10;nan;-23902.72;5029502;28;20182;-77
2022/01/14 08:32:42;;;;;;;18.97;9.33;;;;;;;3.20;nan;-23905.56;5032823;28;20217;-77
2022/01/14 08:35:08;;;;;;;17.60;9.47;;;;;;;3.31;nan;-23908.72;5028422;28;20277;-75
2022/01/14 08:37:34;;;;;;;28.53;10.00;;;;;;;3.31;nan;-23908.72;5036937;28;20190;-77
2022/01/14 08:39:59;;;;;;;22.50;10.27;;;;;;;3.31;nan;-23908.56;5018205;28;20638;-76
2022/01/14 08:42:25;;;;;;;20.40;10.10;;;;;;;3.59;nan;-23916.53;5029828;28;20183;-77
2022/01/14 08:44:50;;;;;;;24.97;10.63;;;;;;;3.56;nan;-23915.81;5044453;28;20186;-78
2022/01/14 08:47:16;;;;;;;20.17;10.57;;;;;;;3.60;nan;-23916.69;5031059;28;20193;-77
2022/01/14 08:49:43;;;;;;;22.50;10.63;;;;;;;3.14;nan;-23903.84;5051045;28;20178;-78
2022/01/14 08:52:11;;;;;;;19.30;11.43;;;;;;;3.69;nan;-23919.25;5050369;28;20284;-78
2022/01/14 08:54:37;;;;;;;21.67;11.37;;;;;;;3.30;nan;-23908.28;5032630;28;20202;-78
2022/01/14 08:57:03;;;;;;;22.07;11.97;;;;;;;3.91;nan;-23925.66;5050952;28;20175;-80
2022/01/14 08:59:30;;;;;;;22.23;12.17;;;;;;;3.98;nan;-23927.50;5050604;28;20270;-79
2022/01/14 09:01:56;;;;;;;24.50;11.77;;;;;;;3.80;nan;-23922.53;5050923;28;20222;-80
2022/01/14 09:04:21;;;;;;;18.87;11.13;;;;;;;3.98;nan;-23927.50;5033018;28;20179;-79
2022/01/14 09:06:47;;;;;;;21.40;11.63;;;;;;;3.80;nan;-23922.38;5032939;28;20568;-79
2022/01/14 09:09:13;;;;;;;22.83;11.23;;;;;;;4.00;nan;-23928.09;5042481;28;20224;-79
2022/01/14 09:11:39;;;;;;;22.63;10.90;;;;;;;4.15;nan;-23932.34;5029817;28;20689;-79
2022/01/14 09:14:05;;;;;;;19.17;10.40;;;;;;;3.96;nan;-23926.94;5033785;28;20301;-80
2022/01/14 09:16:30;;;;;;;25.13;11.53;;;;;;;4.26;nan;-23935.50;5018365;28;20186;-80
2022/01/14 09:18:56;;;;;;;19.77;10.33;;;;;;;4.29;nan;-23936.34;5039608;28;20222;-79
2022/01/14 09:21:22;;;;;;;18.47;10.73;;;;;;;4.40;nan;-23939.34;5037004;28;20233;-80
2022/01/14 09:24:03;;;;;;;19.23;10.70;;;;;;;4.02;nan;-23928.50;5025301;28;20189;-77
2022/01/14 09:26:34;;;;;;;17.40;9.90;;;;;;;3.90;nan;-23925.22;5032480;28;20287;-76
2022/01/14 09:29:04;;;;;;;20.30;11.17;;;;;;;4.45;nan;-23940.91;5035322;28;20183;-78
2022/01/14 09:31:29;;;;;;;21.23;11.47;;;;;;;4.61;nan;-23945.16;5050661;28;20261;-77
2022/01/14 09:33:55;;;;;;;21.57;12.30;;;;;;;4.56;nan;-23943.75;5032646;28;20182;-77
2022/01/14 09:36:20;;;;;;;20.80;11.40;;;;;;;4.53;nan;-23942.91;5032794;28;20174;-77
2022/01/14 09:38:46;;;;;;;19.90;10.40;;;;;;;4.75;nan;-23949.16;5050577;28;20182;-78
2022/01/14 09:41:13;;;;;;;19.03;10.50;;;;;;;4.73;nan;-23948.59;5032614;28;20174;-75
2022/01/14 09:43:39;;;;;;;22.13;10.63;;;;;;;4.73;nan;-23948.59;5050520;28;20292;-78
2022/01/14 09:46:08;;;;;;;26.53;11.60;;;;;;;5.21;nan;-23962.25;5031957;28;20633;-75
2022/01/14 09:48:35;;;;;;;24.30;12.43;;;;;;;5.31;nan;-23965.09;5050267;28;20220;-77
2022/01/14 09:51:01;;;;;;;19.57;11.67;;;;;;;5.42;nan;-23968.06;5042258;28;20183;-76
2022/01/14 09:53:28;;;;;;;23.80;12.27;;;;;;;5.23;nan;-23962.81;5028920;28;20230;-77
2022/01/14 09:55:54;;;;;;;21.10;11.87;;;;;;;5.19;nan;-23961.53;5054025;28;20688;-78
2022/01/14 09:58:23;;;;;;;22.37;11.60;;;;;;;4.83;nan;-23951.44;5054217;28;20178;-78
2022/01/14 10:00:48;;;;;;;21.17;11.30;;;;;;;4.81;nan;-23950.84;5053744;28;20183;-77
2022/01/14 10:03:23;;;;;;;19.10;11.30;;;;;;;5.34;nan;-23965.78;5036739;28;20206;-76
2022/01/14 10:05:52;;;;;;;19.43;11.23;;;;;;;5.38;nan;-23966.94;5054600;28;20174;-77
2022/01/14 10:08:25;;;;;;;19.13;10.77;;;;;;;5.60;nan;-23973.19;5050435;28;20663;-78
2022/01/14 10:11:01;;;;;;;21.43;11.77;;;;;;;5.26;nan;-23963.53;5052518;28;20558;-78
2022/01/14 10:13:30;;;;;;;21.57;12.33;;;;;;;5.22;nan;-23962.38;5053891;28;20174;-78
2022/01/14 10:16:09;;;;;;;20.43;12.13;;;;;;;5.31;nan;-23965.09;5035969;28;20239;-79
2022/01/14 10:18:38;;;;;;;23.53;11.87;;;;;;;5.47;nan;-23969.34;5041892;28;20171;-78
2022/01/14 10:21:07;;;;;;;23.70;11.63;;;;;;;5.95;nan;-23983.00;5052177;28;20646;-79
2022/01/14 10:23:47;;;;;;;19.17;10.03;;;;;;;5.90;nan;-23981.56;5035382;28;20170;-79
2022/01/14 10:26:15;;;;;;;17.50;9.90;;;;;;;5.92;nan;-23982.16;5053307;28;20177;-77
2022/01/14 10:28:44;;;;;;;19.93;9.43;;;;;;;6.05;nan;-23985.69;5034635;28;20266;-75
2022/01/14 10:31:10;;;;;;;15.47;9.63;;;;;;;6.33;nan;-23993.50;5053442;28;20174;-76
2022/01/14 10:33:35;;;;;;;16.60;9.27;;;;;;;6.16;nan;-23988.81;5052753;28;20266;-76
2022/01/14 10:36:00;;;;;;;15.70;9.63;;;;;;;6.35;nan;-23994.06;5044983;28;20341;-77
2022/01/14 10:38:36;;;;;;;14.10;8.63;;;;;;;6.19;nan;-23989.81;5034235;28;20673;-77
2022/01/14 10:41:07;;;;;;;15.47;7.97;;;;;;;6.43;nan;-23996.34;5036846;28;20182;-78
2022/01/14 10:43:38;;;;;;;15.07;7.20;;;;;;;6.49;nan;-23998.06;5052610;28;20594;-76
2022/01/14 10:46:08;;;;;;;13.13;7.17;;;;;;;6.27;nan;-23991.94;5048615;28;20558;-75
2022/01/14 10:48:36;;;;;;;11.60;7.33;;;;;;;6.60;nan;-24001.31;5053048;28;20183;-74
2022/01/14 10:51:06;;;;;;;17.03;7.57;;;;;;;6.32;nan;-23993.22;5051839;28;20654;-74
2022/01/14 10:53:35;;;;;;;14.67;7.20;;;;;;;6.76;nan;-24005.56;5052903;28;20233;-74
2022/01/14 10:56:03;;;;;;;11.57;6.90;;;;;;;6.80;nan;-24006.72;5052387;28;20209;-74
2022/01/14 10:58:31;;;;;;;11.87;7.37;;;;;;;6.49;nan;-23998.19;5034867;28;20171;-73
2022/01/14 11:01:05;;;;;;;13.17;7.30;;;;;;;6.47;nan;-23997.47;5052402;28;20197;-73
2022/01/14 11:03:43;;;;;;;12.67;7.57;;;;;;;6.84;nan;-24008.00;5052303;28;20205;-72
2022/01/14 11:06:23;;;;;;;14.20;7.87;;;;;;;6.85;nan;-24008.13;5052499;28;20174;-73
2022/01/14 11:08:59;;;;;;;16.77;7.80;;;;;;;6.92;nan;-24010.25;5051768;28;20194;-73
2022/01/14 11:11:26;;;;;;;12.03;7.60;;;;;;;7.12;nan;-24015.66;5052775;28;20167;-72
2022/01/14 11:13:51;;;;;;;24.17;8.57;;;;;;;7.00;nan;-24012.53;5052266;28;20236;-73
2022/01/14 11:16:17;;;;;;;13.40;7.63;;;;;;;7.15;nan;-24016.50;5051184;28;20254;-76
2022/01/14 11:18:45;;;;;;;13.07;8.33;;;;;;;7.14;nan;-24016.34;5052536;28;20221;-76
2022/01/14 11:23:54;;;;;;;13.30;8.87;;;;;;;7.15;nan;-24016.50;5052209;28;20240;-76
2022/01/14 11:26:21;;;;;;;12.47;8.20;;;;;;;6.92;nan;-24010.25;5051800;28;20660;-76
2022/01/14 11:28:48;;;;;;;14.93;8.47;;;;;;;7.44;nan;-24024.72;5051402;28;20591;-76
2022/01/14 11:31:31;;;;;;;18.80;8.50;;;;;;;6.89;nan;-24009.41;5034490;28;20224;-76
2022/01/14 11:33:59;;;;;;;14.33;9.10;;;;;;;7.38;nan;-24023.00;5033818;28;20574;-76
2022/01/14 11:36:25;;;;;;;16.30;9.20;;;;;;;7.20;nan;-24017.91;5051347;28;20500;-77
2022/01/14 11:38:51;;;;;;;19.27;8.73;;;;;;;7.33;nan;-24021.75;5033480;28;20269;-76
2022/01/14 11:41:40;;;;;;;20.37;8.93;;;;;;;6.88;nan;-24008.97;5052084;28;20179;-75
2022/01/14 11:44:08;;;;;;;14.47;8.90;;;;;;;7.38;nan;-24023.00;5051745;28;20655;-76
2022/01/14 11:46:34;;;;;;;13.77;8.57;;;;;;;7.28;nan;-24020.31;5051814;28;20196;-76
2022/01/14 11:49:00;;;;;;;16.00;9.57;;;;;;;6.98;nan;-24011.94;5052534;28;20171;-76
2022/01/14 11:51:25;;;;;;;14.63;8.60;;;;;;;7.01;nan;-24012.66;5034021;28;20488;-76
2022/01/14 11:54:04;;;;;;;14.93;8.43;;;;;;;7.06;nan;-24014.22;5034294;28;20682;-76
2022/01/14 11:56:32;;;;;;;16.73;8.90;;;;;;;7.52;nan;-24027.13;5052327;28;20186;-76
2022/01/14 11:59:22;;;;;;;15.67;8.87;;;;;;;7.39;nan;-24023.31;5053151;28;20167;-76
2022/01/14 12:01:52;;;;;;;17.23;9.13;;;;;;;7.30;nan;-24020.75;5051708;28;20181;-76